sensor_id;sensor_type;location;lat;lon;timestamp;temperature;humidity
7576;DHT22;3829;50.798;4.358;2023-07-13T00:00:29;16.40;99.90
7576;DHT22;3829;50.798;4.358;2023-07-13T00:02:56;16.40;99.90
7576;DHT22;3829;50.798;4.358;2023-07-13T00:05:22;16.40;99.90
7576;DHT22;3829;50.798;4.358;2023-07-13T00:07:49;16.50;99.90
7576;DHT22;3829;50.798;4.358;2023-07-13T00:10:15;16.40;99.90
7576;DHT22;3829;50.798;4.358;2023-07-13T00:12:41;16.30;99.90
7576;DHT22;3829;50.798;4.358;2023-07-13T00:15:12;16.20;99.90
7576;DHT22;3829;50.798;4.358;2023-07-13T00:17:39;16.20;99.90
7576;DHT22;3829;50.798;4.358;2023-07-13T00:20:05;16.30;99.90
7576;DHT22;3829;50.798;4.358;2023-07-13T00:22:32;16.30;99.90
7576;DHT22;3829;50.798;4.358;2023-07-13T00:24:57;16.20;99.90
7576;DHT22;3829;50.798;4.358;2023-07-13T00:27:23;16.10;99.90
7576;DHT22;3829;50.798;4.358;2023-07-13T00:29:51;16.00;99.90
7576;DHT22;3829;50.798;4.358;2023-07-13T00:32:16;16.00;99.90
7576;DHT22;3829;50.798;4.358;2023-07-13T00:34:42;16.00;99.90
7576;DHT22;3829;50.798;4.358;2023-07-13T00:37:09;16.00;99.90
7576;DHT22;3829;50.798;4.358;2023-07-13T00:39:35;15.80;99.90
7576;DHT22;3829;50.798;4.358;2023-07-13T00:42:01;15.90;99.90
7576;DHT22;3829;50.798;4.358;2023-07-13T00:44:26;15.90;99.90
7576;DHT22;3829;50.798;4.358;2023-07-13T00:46:52;15.90;99.90
7576;DHT22;3829;50.798;4.358;2023-07-13T00:49:20;15.80;99.90
7576;DHT22;3829;50.798;4.358;2023-07-13T00:51:55;15.90;99.90
7576;DHT22;3829;50.798;4.358;2023-07-13T00:54:27;15.90;99.90
7576;DHT22;3829;50.798;4.358;2023-07-13T00:56:57;15.90;99.90
7576;DHT22;3829;50.798;4.358;2023-07-13T00:59:25;15.90;99.90
7576;DHT22;3829;50.798;4.358;2023-07-13T01:01:51;15.90;99.90
7576;DHT22;3829;50.798;4.358;2023-07-13T01:04:17;15.80;99.90
7576;DHT22;3829;50.798;4.358;2023-07-13T01:06:43;15.90;99.90
7576;DHT22;3829;50.798;4.358;2023-07-13T01:09:10;15.90;99.90
7576;DHT22;3829;50.798;4.358;2023-07-13T01:11:37;15.80;99.90
7576;DHT22;3829;50.798;4.358;2023-07-13T01:14:03;15.80;99.90
7576;DHT22;3829;50.798;4.358;2023-07-13T01:16:32;15.80;99.90
7576;DHT22;3829;50.798;4.358;2023-07-13T01:18:59;15.80;99.90
7576;DHT22;3829;50.798;4.358;2023-07-13T01:21:28;15.90;99.90
7576;DHT22;3829;50.798;4.358;2023-07-13T01:23:54;15.80;99.90
7576;DHT22;3829;50.798;4.358;2023-07-13T01:26:20;15.80;99.90
7576;DHT22;3829;50.798;4.358;2023-07-13T01:28:45;15.70;99.90
7576;DHT22;3829;50.798;4.358;2023-07-13T01:31:12;15.70;99.90
7576;DHT22;3829;50.798;4.358;2023-07-13T01:33:38;15.60;99.90
7576;DHT22;3829;50.798;4.358;2023-07-13T01:36:06;15.60;99.90
7576;DHT22;3829;50.798;4.358;2023-07-13T01:38:32;15.60;99.90
7576;DHT22;3829;50.798;4.358;2023-07-13T01:40:58;15.60;99.90
7576;DHT22;3829;50.798;4.358;2023-07-13T01:43:23;15.60;99.90
7576;DHT22;3829;50.798;4.358;2023-07-13T01:45:49;15.60;99.90
7576;DHT22;3829;50.798;4.358;2023-07-13T01:48:14;15.60;99.90
7576;DHT22;3829;50.798;4.358;2023-07-13T01:50:40;15.60;99.90
7576;DHT22;3829;50.798;4.358;2023-07-13T01:53:06;15.60;99.90
7576;DHT22;3829;50.798;4.358;2023-07-13T01:55:32;15.60;99.90
7576;DHT22;3829;50.798;4.358;2023-07-13T01:57:58;15.60;99.90
7576;DHT22;3829;50.798;4.358;2023-07-13T02:00:24;15.60;99.90
7576;DHT22;3829;50.798;4.358;2023-07-13T02:02:50;15.60;99.90
7576;DHT22;3829;50.798;4.358;2023-07-13T02:05:16;15.60;99.90
7576;DHT22;3829;50.798;4.358;2023-07-13T02:07:42;15.60;99.90
7576;DHT22;3829;50.798;4.358;2023-07-13T02:10:09;15.60;99.90
7576;DHT22;3829;50.798;4.358;2023-07-13T02:12:36;15.60;99.90
7576;DHT22;3829;50.798;4.358;2023-07-13T02:15:03;15.60;99.90
7576;DHT22;3829;50.798;4.358;2023-07-13T02:17:29;15.60;99.90
7576;DHT22;3829;50.798;4.358;2023-07-13T02:19:55;15.50;99.90
7576;DHT22;3829;50.798;4.358;2023-07-13T02:22:21;15.50;99.90
7576;DHT22;3829;50.798;4.358;2023-07-13T02:24:47;15.60;99.90
7576;DHT22;3829;50.798;4.358;2023-07-13T02:27:13;15.50;99.90
7576;DHT22;3829;50.798;4.358;2023-07-13T02:29:38;15.40;99.90
7576;DHT22;3829;50.798;4.358;2023-07-13T02:32:04;15.40;99.90
7576;DHT22;3829;50.798;4.358;2023-07-13T02:34:31;15.40;99.90
7576;DHT22;3829;50.798;4.358;2023-07-13T02:36:56;15.40;99.90
7576;DHT22;3829;50.798;4.358;2023-07-13T02:39:22;15.40;99.90
7576;DHT22;3829;50.798;4.358;2023-07-13T02:41:47;15.40;99.90
7576;DHT22;3829;50.798;4.358;2023-07-13T02:44:14;15.40;99.90
7576;DHT22;3829;50.798;4.358;2023-07-13T02:46:39;15.40;99.90
7576;DHT22;3829;50.798;4.358;2023-07-13T02:49:05;15.40;99.90
7576;DHT22;3829;50.798;4.358;2023-07-13T02:51:31;15.40;99.90
7576;DHT22;3829;50.798;4.358;2023-07-13T02:54:01;15.40;99.90
7576;DHT22;3829;50.798;4.358;2023-07-13T02:56:28;15.30;99.90
7576;DHT22;3829;50.798;4.358;2023-07-13T02:58:54;15.20;99.90
7576;DHT22;3829;50.798;4.358;2023-07-13T03:01:21;15.20;99.90
7576;DHT22;3829;50.798;4.358;2023-07-13T03:03:47;15.10;99.90
7576;DHT22;3829;50.798;4.358;2023-07-13T03:06:13;15.10;99.90
7576;DHT22;3829;50.798;4.358;2023-07-13T03:08:39;15.20;99.90
7576;DHT22;3829;50.798;4.358;2023-07-13T03:11:10;15.20;99.90
7576;DHT22;3829;50.798;4.358;2023-07-13T03:13:38;15.20;99.90
7576;DHT22;3829;50.798;4.358;2023-07-13T03:16:04;15.20;99.90
7576;DHT22;3829;50.798;4.358;2023-07-13T03:18:30;15.20;99.90
7576;DHT22;3829;50.798;4.358;2023-07-13T03:20:55;15.20;99.90
7576;DHT22;3829;50.798;4.358;2023-07-13T03:23:22;15.20;99.90
7576;DHT22;3829;50.798;4.358;2023-07-13T03:25:48;15.20;99.90
7576;DHT22;3829;50.798;4.358;2023-07-13T03:28:14;15.10;99.90
7576;DHT22;3829;50.798;4.358;2023-07-13T03:30:40;15.10;99.90
7576;DHT22;3829;50.798;4.358;2023-07-13T03:33:06;15.10;99.90
7576;DHT22;3829;50.798;4.358;2023-07-13T03:35:33;15.10;99.90
7576;DHT22;3829;50.798;4.358;2023-07-13T03:37:59;15.10;99.90
7576;DHT22;3829;50.798;4.358;2023-07-13T03:40:26;15.20;99.90
7576;DHT22;3829;50.798;4.358;2023-07-13T03:42:52;15.30;99.90
7576;DHT22;3829;50.798;4.358;2023-07-13T03:45:18;15.30;99.90
7576;DHT22;3829;50.798;4.358;2023-07-13T03:47:44;15.40;99.90
7576;DHT22;3829;50.798;4.358;2023-07-13T03:50:10;15.60;99.90
7576;DHT22;3829;50.798;4.358;2023-07-13T03:52:36;15.70;99.90
7576;DHT22;3829;50.798;4.358;2023-07-13T03:55:02;15.80;99.90
7576;DHT22;3829;50.798;4.358;2023-07-13T03:57:27;15.90;99.90
7576;DHT22;3829;50.798;4.358;2023-07-13T03:59:53;15.90;99.90
7576;DHT22;3829;50.798;4.358;2023-07-13T04:02:20;15.90;99.90
7576;DHT22;3829;50.798;4.358;2023-07-13T04:04:46;16.00;99.90
7576;DHT22;3829;50.798;4.358;2023-07-13T04:07:12;16.10;99.90
7576;DHT22;3829;50.798;4.358;2023-07-13T04:09:38;16.20;99.90
7576;DHT22;3829;50.798;4.358;2023-07-13T04:12:04;16.30;99.90
7576;DHT22;3829;50.798;4.358;2023-07-13T04:14:30;16.40;99.90
7576;DHT22;3829;50.798;4.358;2023-07-13T04:16:55;16.50;99.90
7576;DHT22;3829;50.798;4.358;2023-07-13T04:19:21;16.40;99.90
7576;DHT22;3829;50.798;4.358;2023-07-13T04:21:47;16.50;99.90
7576;DHT22;3829;50.798;4.358;2023-07-13T04:24:12;16.40;99.90
7576;DHT22;3829;50.798;4.358;2023-07-13T04:26:38;16.40;99.90
7576;DHT22;3829;50.798;4.358;2023-07-13T04:29:04;16.50;99.90
7576;DHT22;3829;50.798;4.358;2023-07-13T04:31:31;16.40;99.90
7576;DHT22;3829;50.798;4.358;2023-07-13T04:33:57;16.40;99.90
7576;DHT22;3829;50.798;4.358;2023-07-13T04:36:22;16.50;99.90
7576;DHT22;3829;50.798;4.358;2023-07-13T04:38:48;16.40;99.90
7576;DHT22;3829;50.798;4.358;2023-07-13T04:41:14;16.50;99.90
7576;DHT22;3829;50.798;4.358;2023-07-13T04:43:40;16.50;99.90
7576;DHT22;3829;50.798;4.358;2023-07-13T04:46:09;16.60;99.90
7576;DHT22;3829;50.798;4.358;2023-07-13T04:48:36;16.70;99.90
7576;DHT22;3829;50.798;4.358;2023-07-13T04:51:03;16.50;99.90
7576;DHT22;3829;50.798;4.358;2023-07-13T04:53:29;16.60;99.90
7576;DHT22;3829;50.798;4.358;2023-07-13T04:55:55;16.60;99.90
7576;DHT22;3829;50.798;4.358;2023-07-13T04:58:22;16.70;99.90
7576;DHT22;3829;50.798;4.358;2023-07-13T05:00:48;16.70;99.90
7576;DHT22;3829;50.798;4.358;2023-07-13T05:03:13;16.70;99.90
7576;DHT22;3829;50.798;4.358;2023-07-13T05:05:39;16.80;99.90
7576;DHT22;3829;50.798;4.358;2023-07-13T05:08:05;16.70;99.90
7576;DHT22;3829;50.798;4.358;2023-07-13T05:10:30;16.60;99.90
7576;DHT22;3829;50.798;4.358;2023-07-13T05:12:56;16.70;99.90
7576;DHT22;3829;50.798;4.358;2023-07-13T05:15:22;16.80;99.90
7576;DHT22;3829;50.798;4.358;2023-07-13T05:17:49;16.70;99.90
7576;DHT22;3829;50.798;4.358;2023-07-13T05:20:15;16.80;99.90
7576;DHT22;3829;50.798;4.358;2023-07-13T05:22:42;16.90;99.90
7576;DHT22;3829;50.798;4.358;2023-07-13T05:25:08;16.90;99.90
7576;DHT22;3829;50.798;4.358;2023-07-13T05:27:34;17.00;99.90
7576;DHT22;3829;50.798;4.358;2023-07-13T05:30:01;17.10;99.90
7576;DHT22;3829;50.798;4.358;2023-07-13T05:32:26;17.20;99.90
7576;DHT22;3829;50.798;4.358;2023-07-13T05:34:52;17.30;99.90
7576;DHT22;3829;50.798;4.358;2023-07-13T05:37:18;17.20;99.90
7576;DHT22;3829;50.798;4.358;2023-07-13T05:39:43;17.30;99.90
7576;DHT22;3829;50.798;4.358;2023-07-13T05:42:09;17.20;99.90
7576;DHT22;3829;50.798;4.358;2023-07-13T05:44:34;17.30;99.90
7576;DHT22;3829;50.798;4.358;2023-07-13T05:47:00;17.20;99.90
7576;DHT22;3829;50.798;4.358;2023-07-13T05:49:26;17.10;99.90
7576;DHT22;3829;50.798;4.358;2023-07-13T05:51:51;17.10;99.90
7576;DHT22;3829;50.798;4.358;2023-07-13T05:54:17;17.20;99.90
7576;DHT22;3829;50.798;4.358;2023-07-13T05:56:43;17.40;99.90
7576;DHT22;3829;50.798;4.358;2023-07-13T05:59:08;17.30;99.90
7576;DHT22;3829;50.798;4.358;2023-07-13T06:01:34;17.20;99.90
7576;DHT22;3829;50.798;4.358;2023-07-13T06:03:59;17.40;99.90
7576;DHT22;3829;50.798;4.358;2023-07-13T06:06:25;17.40;99.90
7576;DHT22;3829;50.798;4.358;2023-07-13T06:08:51;17.60;99.90
7576;DHT22;3829;50.798;4.358;2023-07-13T06:11:19;17.70;99.90
7576;DHT22;3829;50.798;4.358;2023-07-13T06:13:45;17.70;99.90
7576;DHT22;3829;50.798;4.358;2023-07-13T06:16:13;17.90;99.90
7576;DHT22;3829;50.798;4.358;2023-07-13T06:18:39;17.90;99.90
7576;DHT22;3829;50.798;4.358;2023-07-13T06:21:08;17.80;99.90
7576;DHT22;3829;50.798;4.358;2023-07-13T06:23:34;17.80;99.90
7576;DHT22;3829;50.798;4.358;2023-07-13T06:26:00;17.80;99.90
7576;DHT22;3829;50.798;4.358;2023-07-13T06:28:25;18.00;99.90
7576;DHT22;3829;50.798;4.358;2023-07-13T06:30:51;18.30;99.90
7576;DHT22;3829;50.798;4.358;2023-07-13T06:33:16;18.60;99.90
7576;DHT22;3829;50.798;4.358;2023-07-13T06:35:42;18.50;99.90
7576;DHT22;3829;50.798;4.358;2023-07-13T06:38:08;18.60;99.90
7576;DHT22;3829;50.798;4.358;2023-07-13T06:40:33;18.60;99.90
7576;DHT22;3829;50.798;4.358;2023-07-13T06:42:59;18.70;99.90
7576;DHT22;3829;50.798;4.358;2023-07-13T06:45:25;18.90;99.90
7576;DHT22;3829;50.798;4.358;2023-07-13T06:47:50;18.80;99.90
7576;DHT22;3829;50.798;4.358;2023-07-13T06:50:16;19.00;99.90
7576;DHT22;3829;50.798;4.358;2023-07-13T06:52:41;19.30;99.90
7576;DHT22;3829;50.798;4.358;2023-07-13T06:55:07;19.40;99.90
7576;DHT22;3829;50.798;4.358;2023-07-13T06:57:33;19.40;99.90
7576;DHT22;3829;50.798;4.358;2023-07-13T06:59:59;19.20;99.90
7576;DHT22;3829;50.798;4.358;2023-07-13T07:02:24;19.20;99.90
7576;DHT22;3829;50.798;4.358;2023-07-13T07:04:50;19.30;99.90
7576;DHT22;3829;50.798;4.358;2023-07-13T07:07:16;19.30;99.90
7576;DHT22;3829;50.798;4.358;2023-07-13T07:09:41;19.50;99.90
7576;DHT22;3829;50.798;4.358;2023-07-13T07:12:07;19.50;99.90
7576;DHT22;3829;50.798;4.358;2023-07-13T07:14:33;19.50;99.90
7576;DHT22;3829;50.798;4.358;2023-07-13T07:16:59;19.70;99.90
7576;DHT22;3829;50.798;4.358;2023-07-13T07:19:25;19.90;99.90
7576;DHT22;3829;50.798;4.358;2023-07-13T07:21:51;20.00;99.90
7576;DHT22;3829;50.798;4.358;2023-07-13T07:24:16;20.00;99.90
7576;DHT22;3829;50.798;4.358;2023-07-13T07:26:42;20.30;99.90
7576;DHT22;3829;50.798;4.358;2023-07-13T07:29:07;20.40;99.90
7576;DHT22;3829;50.798;4.358;2023-07-13T07:31:33;20.60;99.90
7576;DHT22;3829;50.798;4.358;2023-07-13T07:33:59;20.60;99.90
7576;DHT22;3829;50.798;4.358;2023-07-13T07:36:24;20.40;99.90
7576;DHT22;3829;50.798;4.358;2023-07-13T07:38:50;20.40;99.90
7576;DHT22;3829;50.798;4.358;2023-07-13T07:41:16;20.50;99.90
7576;DHT22;3829;50.798;4.358;2023-07-13T07:43:42;20.30;99.90
7576;DHT22;3829;50.798;4.358;2023-07-13T07:46:07;20.20;99.90
7576;DHT22;3829;50.798;4.358;2023-07-13T07:48:33;20.00;99.90
7576;DHT22;3829;50.798;4.358;2023-07-13T07:50:59;20.00;99.90
7576;DHT22;3829;50.798;4.358;2023-07-13T07:53:24;20.00;99.90
7576;DHT22;3829;50.798;4.358;2023-07-13T07:55:50;19.90;99.90
7576;DHT22;3829;50.798;4.358;2023-07-13T07:58:16;19.90;99.90
7576;DHT22;3829;50.798;4.358;2023-07-13T08:00:42;20.20;99.90
7576;DHT22;3829;50.798;4.358;2023-07-13T08:03:07;20.20;99.90
7576;DHT22;3829;50.798;4.358;2023-07-13T08:05:35;20.50;99.90
7576;DHT22;3829;50.798;4.358;2023-07-13T08:08:01;20.50;99.90
7576;DHT22;3829;50.798;4.358;2023-07-13T08:10:27;20.70;99.90
7576;DHT22;3829;50.798;4.358;2023-07-13T08:12:52;20.80;99.90
7576;DHT22;3829;50.798;4.358;2023-07-13T08:15:18;21.10;99.90
7576;DHT22;3829;50.798;4.358;2023-07-13T08:17:47;21.40;99.90
7576;DHT22;3829;50.798;4.358;2023-07-13T08:20:13;21.30;99.90
7576;DHT22;3829;50.798;4.358;2023-07-13T08:22:39;21.20;99.90
7576;DHT22;3829;50.798;4.358;2023-07-13T08:25:04;21.00;99.90
7576;DHT22;3829;50.798;4.358;2023-07-13T08:27:30;21.20;99.90
7576;DHT22;3829;50.798;4.358;2023-07-13T08:29:56;21.50;99.90
7576;DHT22;3829;50.798;4.358;2023-07-13T08:32:23;21.50;99.90
7576;DHT22;3829;50.798;4.358;2023-07-13T08:34:49;21.60;99.90
7576;DHT22;3829;50.798;4.358;2023-07-13T08:37:15;21.50;99.90
7576;DHT22;3829;50.798;4.358;2023-07-13T08:39:42;21.10;99.90
7576;DHT22;3829;50.798;4.358;2023-07-13T08:42:18;20.80;99.90
7576;DHT22;3829;50.798;4.358;2023-07-13T08:45:03;21.00;99.90
7576;DHT22;3829;50.798;4.358;2023-07-13T08:47:33;21.30;99.90
7576;DHT22;3829;50.798;4.358;2023-07-13T08:50:02;21.30;99.90
7576;DHT22;3829;50.798;4.358;2023-07-13T08:52:38;21.10;99.90
7576;DHT22;3829;50.798;4.358;2023-07-13T08:55:12;21.20;99.90
7576;DHT22;3829;50.798;4.358;2023-07-13T08:57:41;21.30;99.90
7576;DHT22;3829;50.798;4.358;2023-07-13T09:00:10;21.00;99.90
7576;DHT22;3829;50.798;4.358;2023-07-13T09:10:46;21.40;99.90
7576;DHT22;3829;50.798;4.358;2023-07-13T09:13:28;21.70;99.90
7576;DHT22;3829;50.798;4.358;2023-07-13T09:15:55;22.00;99.90
7576;DHT22;3829;50.798;4.358;2023-07-13T09:18:42;22.10;99.90
7576;DHT22;3829;50.798;4.358;2023-07-13T09:21:16;22.20;99.90
7576;DHT22;3829;50.798;4.358;2023-07-13T09:23:43;22.50;99.90
7576;DHT22;3829;50.798;4.358;2023-07-13T09:26:17;22.50;99.90
7576;DHT22;3829;50.798;4.358;2023-07-13T09:28:47;22.80;99.90
7576;DHT22;3829;50.798;4.358;2023-07-13T09:31:20;22.40;99.90
7576;DHT22;3829;50.798;4.358;2023-07-13T09:33:49;21.50;99.90
7576;DHT22;3829;50.798;4.358;2023-07-13T09:36:20;21.30;99.90
7576;DHT22;3829;50.798;4.358;2023-07-13T09:38:48;21.40;99.90
7576;DHT22;3829;50.798;4.358;2023-07-13T09:41:23;21.30;99.90
7576;DHT22;3829;50.798;4.358;2023-07-13T09:46:46;21.70;99.90
7576;DHT22;3829;50.798;4.358;2023-07-13T09:49:12;21.90;99.90
7576;DHT22;3829;50.798;4.358;2023-07-13T09:51:41;22.30;99.90
7576;DHT22;3829;50.798;4.358;2023-07-13T09:54:22;22.50;99.90
7576;DHT22;3829;50.798;4.358;2023-07-13T09:56:55;22.40;99.90
7576;DHT22;3829;50.798;4.358;2023-07-13T09:59:23;22.50;99.90
7576;DHT22;3829;50.798;4.358;2023-07-13T10:01:49;22.40;99.90
7576;DHT22;3829;50.798;4.358;2023-07-13T10:04:18;22.30;99.90
7576;DHT22;3829;50.798;4.358;2023-07-13T10:06:45;22.00;99.90
7576;DHT22;3829;50.798;4.358;2023-07-13T10:09:15;21.80;99.90
7576;DHT22;3829;50.798;4.358;2023-07-13T10:11:41;21.90;99.90
7576;DHT22;3829;50.798;4.358;2023-07-13T10:14:14;21.90;99.90
7576;DHT22;3829;50.798;4.358;2023-07-13T10:16:42;21.90;99.90
7576;DHT22;3829;50.798;4.358;2023-07-13T10:19:19;22.10;99.90
7576;DHT22;3829;50.798;4.358;2023-07-13T10:21:57;22.30;99.90
7576;DHT22;3829;50.798;4.358;2023-07-13T10:24:30;22.50;99.90
7576;DHT22;3829;50.798;4.358;2023-07-13T10:27:03;22.80;99.90
7576;DHT22;3829;50.798;4.358;2023-07-13T10:29:35;23.10;99.90
7576;DHT22;3829;50.798;4.358;2023-07-13T10:32:07;23.10;99.90
7576;DHT22;3829;50.798;4.358;2023-07-13T10:34:34;23.40;99.90
7576;DHT22;3829;50.798;4.358;2023-07-13T10:37:00;23.70;99.90
7576;DHT22;3829;50.798;4.358;2023-07-13T10:39:27;23.60;99.90
7576;DHT22;3829;50.798;4.358;2023-07-13T10:41:57;23.60;99.90
7576;DHT22;3829;50.798;4.358;2023-07-13T10:44:28;23.70;99.90
7576;DHT22;3829;50.798;4.358;2023-07-13T10:46:58;23.30;99.90
7576;DHT22;3829;50.798;4.358;2023-07-13T10:49:25;23.30;99.90
7576;DHT22;3829;50.798;4.358;2023-07-13T10:51:52;23.00;99.90
7576;DHT22;3829;50.798;4.358;2023-07-13T10:54:27;22.90;99.90
7576;DHT22;3829;50.798;4.358;2023-07-13T10:59:47;23.00;99.90
7576;DHT22;3829;50.798;4.358;2023-07-13T11:02:23;22.80;99.90
7576;DHT22;3829;50.798;4.358;2023-07-13T11:04:53;22.90;99.90
7576;DHT22;3829;50.798;4.358;2023-07-13T11:07:22;22.80;99.90
7576;DHT22;3829;50.798;4.358;2023-07-13T11:09:51;23.10;99.90
7576;DHT22;3829;50.798;4.358;2023-07-13T11:12:28;23.00;99.90
7576;DHT22;3829;50.798;4.358;2023-07-13T11:15:13;23.10;99.90
7576;DHT22;3829;50.798;4.358;2023-07-13T11:17:50;23.30;99.90
7576;DHT22;3829;50.798;4.358;2023-07-13T11:20:22;23.30;99.90
7576;DHT22;3829;50.798;4.358;2023-07-13T11:22:52;23.50;99.90
7576;DHT22;3829;50.798;4.358;2023-07-13T11:25:29;23.30;99.90
7576;DHT22;3829;50.798;4.358;2023-07-13T11:28:15;23.20;99.90
7576;DHT22;3829;50.798;4.358;2023-07-13T11:31:01;23.50;99.90
7576;DHT22;3829;50.798;4.358;2023-07-13T11:33:46;23.70;99.90
7576;DHT22;3829;50.798;4.358;2023-07-13T11:36:16;24.40;99.90
7576;DHT22;3829;50.798;4.358;2023-07-13T11:38:44;24.10;99.90
7576;DHT22;3829;50.798;4.358;2023-07-13T11:41:19;23.90;99.90
7576;DHT22;3829;50.798;4.358;2023-07-13T11:43:49;23.70;99.90
7576;DHT22;3829;50.798;4.358;2023-07-13T11:46:24;23.30;99.90
7576;DHT22;3829;50.798;4.358;2023-07-13T11:48:51;23.20;99.90
7576;DHT22;3829;50.798;4.358;2023-07-13T11:51:26;23.10;99.90
7576;DHT22;3829;50.798;4.358;2023-07-13T11:53:54;22.80;99.90
7576;DHT22;3829;50.798;4.358;2023-07-13T11:56:21;22.50;99.90
7576;DHT22;3829;50.798;4.358;2023-07-13T11:58:51;22.60;99.90
7576;DHT22;3829;50.798;4.358;2023-07-13T12:01:21;22.60;99.90
7576;DHT22;3829;50.798;4.358;2023-07-13T12:03:48;22.50;99.90
7576;DHT22;3829;50.798;4.358;2023-07-13T12:06:28;22.50;99.90
7576;DHT22;3829;50.798;4.358;2023-07-13T12:09:03;22.30;99.90
7576;DHT22;3829;50.798;4.358;2023-07-13T12:11:40;22.40;99.90
7576;DHT22;3829;50.798;4.358;2023-07-13T12:14:05;22.50;99.90
7576;DHT22;3829;50.798;4.358;2023-07-13T12:16:33;23.00;99.90
7576;DHT22;3829;50.798;4.358;2023-07-13T12:19:00;23.10;99.90
7576;DHT22;3829;50.798;4.358;2023-07-13T12:21:32;23.40;99.90
7576;DHT22;3829;50.798;4.358;2023-07-13T12:23:59;23.40;99.90
7576;DHT22;3829;50.798;4.358;2023-07-13T12:26:28;23.40;99.90
7576;DHT22;3829;50.798;4.358;2023-07-13T12:28:54;23.40;99.90
7576;DHT22;3829;50.798;4.358;2023-07-13T12:34:06;23.50;99.90
7576;DHT22;3829;50.798;4.358;2023-07-13T12:36:35;22.80;99.90
7576;DHT22;3829;50.798;4.358;2023-07-13T12:39:10;22.30;99.90
7576;DHT22;3829;50.798;4.358;2023-07-13T12:41:37;21.80;99.90
7576;DHT22;3829;50.798;4.358;2023-07-13T12:44:03;21.70;99.90
7576;DHT22;3829;50.798;4.358;2023-07-13T12:46:30;21.40;99.90
7576;DHT22;3829;50.798;4.358;2023-07-13T12:48:57;20.40;99.90
7576;DHT22;3829;50.798;4.358;2023-07-13T12:51:26;19.50;99.90
7576;DHT22;3829;50.798;4.358;2023-07-13T12:53:59;18.90;99.90
7576;DHT22;3829;50.798;4.358;2023-07-13T12:56:32;18.60;99.90
7576;DHT22;3829;50.798;4.358;2023-07-13T12:59:01;18.40;99.90
7576;DHT22;3829;50.798;4.358;2023-07-13T13:01:29;18.20;99.90
7576;DHT22;3829;50.798;4.358;2023-07-13T13:03:55;18.10;99.90
7576;DHT22;3829;50.798;4.358;2023-07-13T13:06:26;18.20;99.90
7576;DHT22;3829;50.798;4.358;2023-07-13T13:08:56;18.40;99.90
7576;DHT22;3829;50.798;4.358;2023-07-13T13:11:24;19.10;99.90
7576;DHT22;3829;50.798;4.358;2023-07-13T13:13:52;19.50;99.90
7576;DHT22;3829;50.798;4.358;2023-07-13T13:16:29;20.20;99.90
7576;DHT22;3829;50.798;4.358;2023-07-13T13:18:59;20.30;99.90
7576;DHT22;3829;50.798;4.358;2023-07-13T13:21:25;20.70;99.90
7576;DHT22;3829;50.798;4.358;2023-07-13T13:23:52;21.00;99.90
7576;DHT22;3829;50.798;4.358;2023-07-13T13:26:19;21.30;99.90
7576;DHT22;3829;50.798;4.358;2023-07-13T13:28:46;21.80;99.90
7576;DHT22;3829;50.798;4.358;2023-07-13T13:31:13;22.40;99.90
7576;DHT22;3829;50.798;4.358;2023-07-13T13:33:42;22.40;99.90
7576;DHT22;3829;50.798;4.358;2023-07-13T13:36:19;22.60;99.90
7576;DHT22;3829;50.798;4.358;2023-07-13T13:38:47;22.60;99.90
7576;DHT22;3829;50.798;4.358;2023-07-13T13:41:13;22.70;99.90
7576;DHT22;3829;50.798;4.358;2023-07-13T13:43:40;22.70;99.90
7576;DHT22;3829;50.798;4.358;2023-07-13T13:46:17;23.00;99.90
7576;DHT22;3829;50.798;4.358;2023-07-13T13:48:44;23.10;99.90
7576;DHT22;3829;50.798;4.358;2023-07-13T13:51:15;22.50;99.90
7576;DHT22;3829;50.798;4.358;2023-07-13T13:53:41;22.70;99.90
7576;DHT22;3829;50.798;4.358;2023-07-13T13:56:08;23.10;99.90
7576;DHT22;3829;50.798;4.358;2023-07-13T13:58:33;23.10;99.90
7576;DHT22;3829;50.798;4.358;2023-07-13T14:00:59;22.40;99.90
7576;DHT22;3829;50.798;4.358;2023-07-13T14:03:25;22.50;99.90
7576;DHT22;3829;50.798;4.358;2023-07-13T14:05:54;22.40;99.90
7576;DHT22;3829;50.798;4.358;2023-07-13T14:08:21;22.40;99.90
7576;DHT22;3829;50.798;4.358;2023-07-13T14:10:50;22.30;99.90
7576;DHT22;3829;50.798;4.358;2023-07-13T14:13:20;22.30;99.90
7576;DHT22;3829;50.798;4.358;2023-07-13T14:15:47;22.30;99.90
7576;DHT22;3829;50.798;4.358;2023-07-13T14:18:13;22.20;99.90
7576;DHT22;3829;50.798;4.358;2023-07-13T14:20:43;22.10;99.90
7576;DHT22;3829;50.798;4.358;2023-07-13T14:23:09;21.70;99.90
7576;DHT22;3829;50.798;4.358;2023-07-13T14:25:35;21.10;99.90
7576;DHT22;3829;50.798;4.358;2023-07-13T14:28:16;20.60;99.90
7576;DHT22;3829;50.798;4.358;2023-07-13T14:30:42;20.20;99.90
7576;DHT22;3829;50.798;4.358;2023-07-13T14:33:10;19.90;99.90
7576;DHT22;3829;50.798;4.358;2023-07-13T14:35:36;19.80;99.90
7576;DHT22;3829;50.798;4.358;2023-07-13T14:38:03;19.70;99.90
7576;DHT22;3829;50.798;4.358;2023-07-13T14:40:30;19.70;99.90
7576;DHT22;3829;50.798;4.358;2023-07-13T14:42:57;19.70;99.90
7576;DHT22;3829;50.798;4.358;2023-07-13T14:45:24;19.90;99.90
7576;DHT22;3829;50.798;4.358;2023-07-13T14:47:50;20.30;99.90
7576;DHT22;3829;50.798;4.358;2023-07-13T14:50:20;20.70;99.90
7576;DHT22;3829;50.798;4.358;2023-07-13T14:52:47;21.00;99.90
7576;DHT22;3829;50.798;4.358;2023-07-13T14:55:16;21.30;99.90
7576;DHT22;3829;50.798;4.358;2023-07-13T14:57:42;21.60;99.90
7576;DHT22;3829;50.798;4.358;2023-07-13T15:00:17;21.70;99.90
7576;DHT22;3829;50.798;4.358;2023-07-13T15:02:46;22.10;99.90
7576;DHT22;3829;50.798;4.358;2023-07-13T15:05:14;22.40;99.90
7576;DHT22;3829;50.798;4.358;2023-07-13T15:07:40;22.70;99.90
7576;DHT22;3829;50.798;4.358;2023-07-13T15:10:16;22.50;99.90
7576;DHT22;3829;50.798;4.358;2023-07-13T15:12:41;22.90;99.90
7576;DHT22;3829;50.798;4.358;2023-07-13T15:15:07;23.70;99.90
7576;DHT22;3829;50.798;4.358;2023-07-13T15:17:39;24.80;99.90
7576;DHT22;3829;50.798;4.358;2023-07-13T15:20:16;25.10;99.90
7576;DHT22;3829;50.798;4.358;2023-07-13T15:22:43;25.20;99.90
7576;DHT22;3829;50.798;4.358;2023-07-13T15:25:20;26.70;99.90
7576;DHT22;3829;50.798;4.358;2023-07-13T15:27:46;28.00;99.90
7576;DHT22;3829;50.798;4.358;2023-07-13T15:30:12;29.10;99.90
7576;DHT22;3829;50.798;4.358;2023-07-13T15:32:38;29.60;99.90
7576;DHT22;3829;50.798;4.358;2023-07-13T15:35:08;28.50;99.90
7576;DHT22;3829;50.798;4.358;2023-07-13T15:37:38;27.50;99.90
7576;DHT22;3829;50.798;4.358;2023-07-13T15:40:04;27.90;99.90
7576;DHT22;3829;50.798;4.358;2023-07-13T15:42:29;28.60;99.90
7576;DHT22;3829;50.798;4.358;2023-07-13T15:44:56;28.40;99.90
7576;DHT22;3829;50.798;4.358;2023-07-13T15:47:21;27.90;99.90
7576;DHT22;3829;50.798;4.358;2023-07-13T15:49:47;27.60;99.90
7576;DHT22;3829;50.798;4.358;2023-07-13T15:52:17;29.00;99.90
7576;DHT22;3829;50.798;4.358;2023-07-13T15:54:44;29.70;99.90
7576;DHT22;3829;50.798;4.358;2023-07-13T15:57:11;30.90;99.90
7576;DHT22;3829;50.798;4.358;2023-07-13T15:59:37;30.70;99.90
7576;DHT22;3829;50.798;4.358;2023-07-13T16:02:14;31.00;99.90
7576;DHT22;3829;50.798;4.358;2023-07-13T16:04:41;30.50;99.90
7576;DHT22;3829;50.798;4.358;2023-07-13T16:07:10;29.60;99.90
7576;DHT22;3829;50.798;4.358;2023-07-13T16:09:36;28.60;99.90
7576;DHT22;3829;50.798;4.358;2023-07-13T16:12:10;29.00;99.90
7576;DHT22;3829;50.798;4.358;2023-07-13T16:14:37;29.70;99.90
7576;DHT22;3829;50.798;4.358;2023-07-13T16:17:03;31.00;99.90
7576;DHT22;3829;50.798;4.358;2023-07-13T16:19:28;31.40;99.90
7576;DHT22;3829;50.798;4.358;2023-07-13T16:21:54;32.50;99.90